createdAt,value
2024-02-08T00:00:55.364Z,83.09
2024-02-08T00:06:17.874Z,83.14
2024-02-08T00:11:21.006Z,82.99
2024-02-08T00:16:22.569Z,83.19
2024-02-08T00:21:24.186Z,83.44
2024-02-08T00:26:25.927Z,83.16
2024-02-08T00:31:27.534Z,83.48
2024-02-08T00:36:29.301Z,83.32
2024-02-08T00:41:30.745Z,83.48
2024-02-08T00:46:32.300Z,83.68
2024-02-08T00:51:33.795Z,83.39
2024-02-08T00:56:35.483Z,83.54
2024-02-08T01:01:40.741Z,83.43
2024-02-08T01:06:42.655Z,83.39
2024-02-08T01:11:44.189Z,83.00
2024-02-08T01:16:46.075Z,83.01
2024-02-08T01:21:47.722Z,83.04
2024-02-08T01:26:50.254Z,82.93
2024-02-08T01:31:52.739Z,82.80
2024-02-08T01:36:54.826Z,82.93
2024-02-08T01:41:56.320Z,82.81
2024-02-08T01:46:58.984Z,82.83
2024-02-08T01:52:00.842Z,82.80
2024-02-08T01:57:04.346Z,82.47
2024-02-08T02:02:08.482Z,82.97
2024-02-08T02:07:12.763Z,82.92
2024-02-08T02:12:19.628Z,82.81
2024-02-08T02:17:26.774Z,83.04
2024-02-08T02:22:32.637Z,82.99
2024-02-08T02:27:40.516Z,83.13
2024-02-08T02:32:50.518Z,83.16
2024-02-08T02:37:52.931Z,83.01
2024-02-08T02:42:55.136Z,83.21
2024-02-08T02:47:58.911Z,83.37
2024-02-08T02:53:00.982Z,83.09
2024-02-08T02:58:02.966Z,82.79
2024-02-08T03:03:12.915Z,83.11
2024-02-08T03:08:16.983Z,82.96
2024-02-08T03:13:19.728Z,83.27
2024-02-08T03:18:24.165Z,82.91
2024-02-08T03:23:25.692Z,82.67
2024-02-08T03:28:29.363Z,82.58
2024-02-08T03:33:32.079Z,82.69
2024-02-08T03:38:33.926Z,82.52
2024-02-08T03:43:36.129Z,82.80
2024-02-08T03:48:38.101Z,82.51
2024-02-08T03:53:41.078Z,82.44
2024-02-08T03:58:42.641Z,82.36
2024-02-08T04:03:53.461Z,82.59
2024-02-08T04:09:09.015Z,82.46
2024-02-08T04:14:29.067Z,82.23
2024-02-08T04:19:49.500Z,81.91
2024-02-08T04:25:09.567Z,81.93
2024-02-08T04:30:30.109Z,81.81
2024-02-08T04:35:50.067Z,81.85
2024-02-08T04:41:10.048Z,81.90
2024-02-08T04:46:45.222Z,81.80
2024-02-08T04:52:05.249Z,81.91
2024-02-08T04:57:08.171Z,81.90
2024-02-08T05:02:09.773Z,81.96
2024-02-08T05:07:11.653Z,81.95
2024-02-08T05:12:13.327Z,82.06
2024-02-08T05:17:14.725Z,82.07
2024-02-08T05:22:16.252Z,82.02
2024-02-08T05:27:17.659Z,82.22
2024-02-08T05:32:23.170Z,82.31
2024-02-08T05:37:26.049Z,82.37
2024-02-08T05:42:27.728Z,82.72
2024-02-08T05:47:29.283Z,82.81
2024-02-08T05:52:33.793Z,83.02
2024-02-08T05:57:35.739Z,83.09
2024-02-08T06:02:40.550Z,83.23
2024-02-08T06:07:56.691Z,83.50
2024-02-08T06:13:01.205Z,83.41
2024-02-08T06:18:06.283Z,83.49
2024-02-08T06:23:17.148Z,83.48
2024-02-08T06:28:25.032Z,83.26
2024-02-08T06:33:32.551Z,83.30
2024-02-08T06:38:53.914Z,83.05
2024-02-08T06:44:18.221Z,83.22
2024-02-08T06:49:38.488Z,82.87
2024-02-08T06:54:58.432Z,82.99
2024-02-08T07:00:18.745Z,82.71
2024-02-08T07:05:38.843Z,82.76
2024-02-08T07:10:59.151Z,82.68
2024-02-08T07:16:19.300Z,82.69
2024-02-08T07:21:40.386Z,82.63
2024-02-08T07:27:00.508Z,82.50
2024-02-08T07:32:20.940Z,82.53
2024-02-08T07:37:30.139Z,82.33
2024-02-08T07:42:41.797Z,82.25
2024-02-08T07:47:57.808Z,81.96
2024-02-08T07:53:19.287Z,81.70
2024-02-08T07:58:40.747Z,81.93
2024-02-08T08:04:02.696Z,81.81
2024-02-08T08:09:39.405Z,81.85
2024-02-08T08:14:41.245Z,81.77
2024-02-08T08:20:06.895Z,81.68
2024-02-08T08:25:12.601Z,81.17
2024-02-08T08:30:35.762Z,81.34
2024-02-08T08:36:09.259Z,81.05
2024-02-08T08:41:30.830Z,80.60
2024-02-08T08:46:52.231Z,80.35
2024-02-08T08:51:59.198Z,80.46
2024-02-08T08:57:03.249Z,80.63
2024-02-08T09:02:04.850Z,80.12
2024-02-08T09:07:13.184Z,79.92
2024-02-08T09:12:35.753Z,79.84
2024-02-08T09:18:05.806Z,79.93
2024-02-08T09:23:13.272Z,79.86
2024-02-08T09:28:26.933Z,79.75
2024-02-08T09:33:51.398Z,79.71
2024-02-08T09:38:53.142Z,79.35
2024-02-08T09:44:14.591Z,79.28
2024-02-08T09:49:37.931Z,78.57
2024-02-08T09:54:44.148Z,78.25
2024-02-08T10:00:00.326Z,77.75
2024-02-08T10:05:24.358Z,77.78
2024-02-08T10:10:28.387Z,76.48
2024-02-08T10:16:02.574Z,75.98
2024-02-08T10:21:34.386Z,75.66
2024-02-08T10:26:39.829Z,75.95
2024-02-08T10:32:01.995Z,75.66
2024-02-08T10:37:24.217Z,76.06
2024-02-08T10:42:47.443Z,76.27
2024-02-08T10:47:52.586Z,75.99
2024-02-08T10:53:01.535Z,75.39
2024-02-08T10:58:21.795Z,75.04
2024-02-08T11:03:37.378Z,75.26
2024-02-08T11:08:50.890Z,75.11
2024-02-08T11:13:55.138Z,75.32
2024-02-08T11:18:58.648Z,75.23
2024-02-08T11:24:02.282Z,75.51
2024-02-08T11:29:20.230Z,75.26
2024-02-08T11:34:28.457Z,75.08
2024-02-08T11:39:32.381Z,75.06
2024-02-08T11:44:38.324Z,74.86
2024-02-08T11:49:53.578Z,74.42
2024-02-08T11:55:21.151Z,73.79
2024-02-08T12:00:25.316Z,73.48
2024-02-08T12:05:30.848Z,73.46
2024-02-08T12:10:32.740Z,73.09
2024-02-08T12:15:35.300Z,73.23
2024-02-08T12:20:37.050Z,73.33
2024-02-08T12:25:43.633Z,73.01
2024-02-08T12:30:46.627Z,72.04
2024-02-08T12:35:48.890Z,73.19
2024-02-08T12:40:51.049Z,72.41
2024-02-08T12:46:14.525Z,72.42
2024-02-08T12:51:20.578Z,71.94
2024-02-08T12:56:42.404Z,72.23
2024-02-08T13:02:04.400Z,72.45
2024-02-08T13:07:07.384Z,72.35
2024-02-08T13:12:20.828Z,72.45
2024-02-08T13:17:26.712Z,72.51
2024-02-08T13:22:31.932Z,71.78
2024-02-08T13:27:33.446Z,72.15
2024-02-08T13:32:36.267Z,72.22
2024-02-08T13:37:38.103Z,72.39
2024-02-08T13:42:51.877Z,72.26
2024-02-08T13:47:59.146Z,72.45
2024-02-08T13:53:04.274Z,73.03
2024-02-08T13:58:09.330Z,73.24
2024-02-08T14:03:11.836Z,73.39
2024-02-08T14:08:18.959Z,73.19
2024-02-08T14:13:41.897Z,72.75
2024-02-08T14:19:03.971Z,72.29
2024-02-08T14:24:25.775Z,71.76
2024-02-08T14:29:47.345Z,72.08
2024-02-08T14:34:49.283Z,72.33
2024-02-08T14:39:51.214Z,71.62
2024-02-08T14:44:55.056Z,71.91
2024-02-08T14:50:02.184Z,71.84
2024-02-08T14:55:20.678Z,71.73
2024-02-08T15:00:32.468Z,72.00
2024-02-08T15:05:49.527Z,72.43
2024-02-08T15:11:27.186Z,72.15
2024-02-08T15:16:32.737Z,72.55
2024-02-08T15:21:38.799Z,72.82
2024-02-08T15:27:00.083Z,73.29
2024-02-08T15:32:05.890Z,73.11
2024-02-08T15:37:14.824Z,73.38
2024-02-08T15:42:32.666Z,73.92
2024-02-08T15:47:59.243Z,74.12
2024-02-08T15:53:23.497Z,73.76
2024-02-08T15:58:29.763Z,74.22
2024-02-08T16:03:40.130Z,74.28
2024-02-08T16:08:47.365Z,73.98
2024-02-08T16:13:57.743Z,74.11
2024-02-08T16:19:00.244Z,74.45
2024-02-08T16:24:13.620Z,74.72
2024-02-08T16:29:20.802Z,74.56
2024-02-08T16:34:34.726Z,74.43
2024-02-08T16:39:55.086Z,74.27
2024-02-08T16:45:06.348Z,74.70
2024-02-08T16:50:17.495Z,74.59
2024-02-08T16:55:23.151Z,74.96
2024-02-08T17:00:48.355Z,74.92
2024-02-08T17:05:53.670Z,74.85
2024-02-08T17:11:01.829Z,75.36
2024-02-08T17:16:03.590Z,75.08
2024-02-08T17:21:34.577Z,75.29
2024-02-08T17:26:36.088Z,75.65
2024-02-08T17:32:03.636Z,75.62
2024-02-08T17:37:25.212Z,75.70
2024-02-08T17:42:46.773Z,76.01
2024-02-08T17:48:08.446Z,75.97
2024-02-08T17:53:30.042Z,76.21
2024-02-08T17:58:52.574Z,76.69
2024-02-08T18:04:14.005Z,76.62
2024-02-08T18:09:17.355Z,76.76
2024-02-08T18:14:19.490Z,76.69
2024-02-08T18:19:32.774Z,77.10
2024-02-08T18:24:35.993Z,77.10
2024-02-08T18:29:45.315Z,76.69
2024-02-08T18:34:50.130Z,77.03
2024-02-08T18:39:52.815Z,77.21
2024-02-08T18:44:56.424Z,77.34
2024-02-08T18:50:09.708Z,77.20
2024-02-08T18:55:16.879Z,77.15
2024-02-08T19:00:23.100Z,77.10
2024-02-08T19:05:24.667Z,77.39
2024-02-08T19:10:30.342Z,77.41
2024-02-08T19:15:32.791Z,77.82
2024-02-08T19:20:34.482Z,77.34
2024-02-08T19:25:36.732Z,77.44
2024-02-08T19:30:42.165Z,77.34
2024-02-08T19:35:44.701Z,77.13
2024-02-08T19:40:48.206Z,77.42
2024-02-08T19:45:54.338Z,77.58
2024-02-08T19:51:05.240Z,78.15
2024-02-08T19:56:27.333Z,78.39
2024-02-08T20:01:36.190Z,78.89
2024-02-08T20:06:57.985Z,79.48
2024-02-08T20:12:05.173Z,79.31
2024-02-08T20:17:10.519Z,79.33
2024-02-08T20:22:14.711Z,78.94
2024-02-08T20:27:18.798Z,78.43
2024-02-08T20:32:20.568Z,78.33
2024-02-08T20:37:25.571Z,78.41
2024-02-08T20:42:29.435Z,78.32
2024-02-08T20:47:30.754Z,77.94
2024-02-08T20:52:33.272Z,77.89
2024-02-08T20:57:40.719Z,78.22
2024-02-08T21:02:47.712Z,78.37
2024-02-08T21:07:50.729Z,78.54
2024-02-08T21:13:12.802Z,78.28
2024-02-08T21:18:40.785Z,78.25
2024-02-08T21:24:02.109Z,78.46
2024-02-08T21:29:05.487Z,78.57
2024-02-08T21:34:07.200Z,78.91
2024-02-08T21:39:18.969Z,79.10
2024-02-08T21:44:21.369Z,78.99
2024-02-08T21:49:26.277Z,79.15
2024-02-08T21:54:27.884Z,79.00
2024-02-08T21:59:30.600Z,79.34
2024-02-08T22:04:32.286Z,79.42
2024-02-08T22:09:33.896Z,79.61
2024-02-08T22:14:38.376Z,79.84
2024-02-08T22:19:44.159Z,79.94
2024-02-08T22:24:45.851Z,79.89
2024-02-08T22:29:47.501Z,79.82
2024-02-08T22:34:50.391Z,79.83
2024-02-08T22:39:51.890Z,79.95
2024-02-08T22:44:53.434Z,80.00
2024-02-08T22:49:54.978Z,80.05
2024-02-08T22:54:56.488Z,79.96
2024-02-08T22:59:58.584Z,80.07
2024-02-08T23:05:00.394Z,80.25
2024-02-08T23:10:06.061Z,80.33
2024-02-08T23:15:10.838Z,80.14
2024-02-08T23:20:32.548Z,80.21
2024-02-08T23:25:36.522Z,80.47
2024-02-08T23:30:58.068Z,80.55
2024-02-08T23:36:19.651Z,80.88
2024-02-08T23:41:21.156Z,80.83
2024-02-08T23:46:26.033Z,80.79
2024-02-08T23:51:28.031Z,81.21
2024-02-08T23:56:29.508Z,81.15
